KDGW/DGW METAR and TAF weather

Enter ICAO airport designator
Station Type Date Time Source
KDGW METAR 2018/12/13 15:53 UTC NOAA

KDGW 131553Z AUTO 35006KT 10SM CLR M08/M12 A3021 RMK AO2 SLP282 T10831122


Station Type Date Time Source
KDGW Decoded METAR 2018/12/13 15:53 UTC NOAA

DOUGLAS CONVERSE COUNTY, WY, United States (KDGW) 42-48N 105-23W 1499M
Dec 13, 2018 - 10:53 AM EST / 2018.12.13 1553 UTC
Wind: from the N (350 degrees) at 7 MPH (6 KT):0
Visibility: 10 mile(s):0
Sky conditions: clear
Temperature: 17.1 F (-8.3 C)
Windchill: 6 F (-14 C):1
Dew Point: 10.0 F (-12.2 C)
Relative Humidity: 73%
Pressure (altimeter): 30.21 in. Hg (1023 hPa)
ob: KDGW 131553Z AUTO 35006KT 10SM CLR M08/M12 A3021 RMK AO2 SLP282 T10831122
cycle: 16

Station Type Date Time Source
KDGW TAF UTC NOAA

Error!


Example: see airport list